Time;durP1;ratioP1;P1;durP2;ratioP2;P2;SDS_P1;SDS_P2;PMS_P1;PMS_P2;Temp;Humidity;BMP_temperature;BMP_pressure;BME280_temperature;BME280_humidity;BME280_pressure;Samples;Min_cycle;Max_cycle;Signal;HPM_P1;HPM_P2
2021/11/14 00:00:29;;;;;;;55.38;26.20;;;;;;;8.87;100.00;101825.38;4923220;29;20028;-70
2021/11/14 00:03:15;;;;;;;51.35;23.95;;;;;;;8.69;100.00;101827.84;4922614;29;20459;-69
2021/11/14 00:06:03;;;;;;;44.75;22.60;;;;;;;8.45;100.00;101826.78;4937582;29;20042;-70
2021/11/14 00:08:49;;;;;;;53.13;23.42;;;;;;;8.45;100.00;101829.41;4935219;29;20095;-69
2021/11/14 00:11:35;;;;;;;51.13;24.35;;;;;;;8.67;100.00;101832.19;4923762;29;20048;-70
2021/11/14 00:14:21;;;;;;;53.47;25.05;;;;;;;8.66;100.00;101833.06;4939202;29;20032;-69
2021/11/14 00:17:07;;;;;;;49.22;24.50;;;;;;;8.24;100.00;101837.03;4940021;29;20039;-69
2021/11/14 00:19:52;;;;;;;49.97;23.75;;;;;;;8.42;100.00;101835.47;4926503;29;20039;-68
2021/11/14 00:22:38;;;;;;;53.63;25.35;;;;;;;8.69;100.00;101832.22;4939939;29;20062;-69
2021/11/14 00:25:25;;;;;;;49.53;23.17;;;;;;;8.44;100.00;101825.06;4940398;29;20477;-69
2021/11/14 00:28:11;;;;;;;43.97;22.52;;;;;;;8.20;100.00;101824.78;4939350;29;20043;-69
2021/11/14 00:30:57;;;;;;;46.28;21.70;;;;;;;8.49;100.00;101823.34;4938755;29;20374;-69
2021/11/14 00:33:45;;;;;;;49.15;24.30;;;;;;;8.75;100.00;101814.84;4938611;29;20031;-69
2021/11/14 00:36:40;;;;;;;42.92;22.42;;;;;;;8.87;100.00;101814.03;4938950;29;20095;-70
2021/11/14 00:39:27;;;;;;;45.38;22.50;;;;;;;8.76;100.00;101813.13;4938505;29;20090;-69
2021/11/14 00:42:13;;;;;;;48.28;22.95;;;;;;;8.31;100.00;101808.38;4940213;29;20035;-69
2021/11/14 00:44:59;;;;;;;44.58;23.45;;;;;;;8.46;100.00;101815.47;4938687;29;20027;-69
2021/11/14 00:47:45;;;;;;;45.90;24.08;;;;;;;8.33;100.00;101819.69;4925068;29;20042;-69
2021/11/14 00:50:32;;;;;;;48.88;23.85;;;;;;;8.05;100.00;101819.41;4939652;29;20042;-69
2021/11/14 00:53:18;;;;;;;42.45;22.30;;;;;;;8.10;100.00;101818.59;4938232;29;20040;-69
2021/11/14 00:56:04;;;;;;;49.75;24.13;;;;;;;8.07;100.00;101817.66;4938467;29;20382;-69
2021/11/14 00:58:51;;;;;;;49.08;24.00;;;;;;;8.30;100.00;101813.59;4938256;29;20135;-69
2021/11/14 01:01:37;;;;;;;56.45;23.80;;;;;;;8.33;100.00;101819.69;4939815;29;20046;-68
2021/11/14 01:04:23;;;;;;;56.75;25.52;;;;;;;8.45;100.00;101818.97;4925804;29;20028;-69
2021/11/14 01:07:09;;;;;;;51.85;24.10;;;;;;;8.11;100.00;101816.84;4939150;29;20051;-69
2021/11/14 01:09:55;;;;;;;53.13;24.35;;;;;;;8.23;100.00;101819.59;4938710;29;20042;-69
2021/11/14 01:12:41;;;;;;;49.45;23.55;;;;;;;8.17;100.00;101817.81;4938072;29;20027;-70
2021/11/14 01:15:29;;;;;;;56.90;24.73;;;;;;;8.09;100.00;101818.56;4937794;29;20036;-69
2021/11/14 01:18:17;;;;;;;57.13;24.30;;;;;;;7.78;100.00;101819.97;4924381;29;20031;-70
2021/11/14 01:21:07;;;;;;;57.20;26.15;;;;;;;8.11;100.00;101816.84;4937785;29;20031;-69
2021/11/14 01:23:55;;;;;;;59.78;26.80;;;;;;;8.25;100.00;101815.28;4937646;29;20362;-69
2021/11/14 01:26:41;;;;;;;58.60;25.88;;;;;;;8.22;100.00;101813.53;4937139;29;20562;-69
2021/11/14 01:29:27;;;;;;;61.65;26.58;;;;;;;8.38;100.00;101811.91;4937679;29;20027;-70
2021/11/14 01:32:12;;;;;;;67.05;26.92;;;;;;;7.93;100.00;101822.78;4939269;29;20027;-69
2021/11/14 01:34:58;;;;;;;65.32;27.75;;;;;;;8.11;100.00;101827.28;4925198;29;20126;-70
2021/11/14 01:37:46;;;;;;;102.93;36.05;;;;;;;8.27;100.00;101824.00;4937529;29;20027;-69
2021/11/14 01:40:37;;;;;;;77.38;31.70;;;;;;;8.62;100.00;101817.34;4923573;29;20040;-69
2021/11/14 01:43:30;;;;;;;71.50;28.42;;;;;;;8.51;100.00;101819.00;4937528;29;20370;-68
2021/11/14 01:46:17;;;;;;;71.85;29.95;;;;;;;8.66;100.00;101820.00;4937268;29;20024;-69
2021/11/14 01:49:04;;;;;;;93.00;31.75;;;;;;;8.32;100.00;101824.94;4937114;29;20047;-69
2021/11/14 01:51:49;;;;;;;73.45;29.20;;;;;;;8.45;100.00;101821.56;4938427;29;20118;-69
2021/11/14 01:54:35;;;;;;;87.95;29.30;;;;;;;8.29;100.00;101817.97;4938657;29;20099;-68
2021/11/14 01:57:22;;;;;;;77.57;29.20;;;;;;;8.53;100.00;101825.97;4938104;29;20044;-70
2021/11/14 02:00:15;;;;;;;85.40;31.33;;;;;;;8.55;100.00;101826.00;4938094;29;20039;-69
2021/11/14 02:03:01;;;;;;;99.43;32.03;;;;;;;8.55;100.00;101824.25;4937201;29;20023;-70
2021/11/14 02:05:47;;;;;;;87.90;30.48;;;;;;;8.60;100.00;101825.16;4924884;29;20032;-69
2021/11/14 02:08:34;;;;;;;96.75;31.98;;;;;;;8.51;100.00;101821.59;4938664;29;20038;-69
2021/11/14 02:11:21;;;;;;;111.63;32.72;;;;;;;7.77;100.00;101827.78;4936960;29;20059;-70
2021/11/14 02:14:07;;;;;;;96.95;30.85;;;;;;;7.79;100.00;101834.78;4937132;29;20028;-69
2021/11/14 02:16:53;;;;;;;90.30;31.52;;;;;;;7.95;100.00;101830.59;4937934;29;20023;-69
2021/11/14 02:19:39;;;;;;;78.75;31.08;;;;;;;8.22;100.00;101830.91;4937284;29;20039;-69
2021/11/14 02:22:25;;;;;;;73.75;30.90;;;;;;;8.27;100.00;101837.94;4937754;29;20114;-69
2021/11/14 02:25:13;;;;;;;86.32;31.83;;;;;;;8.19;100.00;101820.41;4936266;29;20031;-69
2021/11/14 02:27:59;;;;;;;77.70;31.10;;;;;;;8.67;100.00;101820.88;4924438;29;20042;-69
2021/11/14 02:30:46;;;;;;;75.93;30.45;;;;;;;8.19;100.00;101821.28;4936849;29;20023;-68
2021/11/14 02:33:32;;;;;;;76.50;29.83;;;;;;;8.83;100.00;101826.22;4923782;29;20054;-69
2021/11/14 02:36:19;;;;;;;78.85;30.13;;;;;;;8.50;100.00;101817.25;4935756;29;20110;-69
2021/11/14 02:39:06;;;;;;;75.00;30.02;;;;;;;9.04;100.00;101821.13;4937100;29;20031;-70
2021/11/14 02:41:52;;;;;;;81.65;29.77;;;;;;;8.67;100.00;101818.25;4935886;29;20054;-69
2021/11/14 02:44:37;;;;;;;68.38;28.42;;;;;;;8.58;100.00;101826.03;4936817;29;20054;-69
2021/11/14 02:47:23;;;;;;;74.28;29.75;;;;;;;8.84;100.00;101827.13;4924056;29;20031;-69
2021/11/14 02:50:10;;;;;;;75.57;29.73;;;;;;;8.61;100.00;101816.47;4937680;29;20447;-69
2021/11/14 02:52:56;;;;;;;83.82;31.25;;;;;;;8.55;100.00;101826.00;4936066;29;20031;-69
2021/11/14 02:55:44;;;;;;;74.57;29.73;;;;;;;8.86;100.00;101820.16;4937489;29;20118;-69
2021/11/14 02:58:31;;;;;;;87.20;30.60;;;;;;;8.52;100.00;101810.31;4935853;29;20497;-69
2021/11/14 03:01:24;;;;;;;70.63;28.60;;;;;;;8.35;100.00;101824.94;4923020;29;20038;-67
2021/11/14 03:04:14;;;;;;;86.85;31.73;;;;;;;8.71;100.00;101817.41;4936130;29;20020;-69
2021/11/14 03:07:01;;;;;;;77.32;31.25;;;;;;;8.41;100.00;101823.25;4936944;29;20038;-69
2021/11/14 03:09:47;;;;;;;90.85;29.70;;;;;;;8.46;100.00;101831.16;4936209;29;20426;-69
2021/11/14 03:12:32;;;;;;;96.53;28.98;;;;;;;8.13;100.00;101831.69;4937251;29;20477;-69
2021/11/14 03:15:18;;;;;;;88.85;29.55;;;;;;;8.30;100.00;101829.25;4936679;29;20062;-69
2021/11/14 03:18:06;;;;;;;78.32;28.67;;;;;;;7.93;100.00;101834.94;4937264;29;20383;-68
2021/11/14 03:20:54;;;;;;;83.70;28.88;;;;;;;7.98;100.00;101828.03;4936440;29;20451;-69
2021/11/14 03:23:40;;;;;;;83.63;28.88;;;;;;;7.93;100.00;101821.88;4936094;29;20020;-68
2021/11/14 03:26:26;;;;;;;88.45;29.70;;;;;;;8.42;100.00;101819.81;4937198;29;20028;-69
2021/11/14 03:29:12;;;;;;;87.60;29.27;;;;;;;8.41;100.00;101818.03;4937478;29;20028;-69
2021/11/14 03:31:58;;;;;;;74.95;28.23;;;;;;;8.37;100.00;101818.00;4923355;29;20044;-69
2021/11/14 03:34:44;;;;;;;76.82;26.08;;;;;;;8.11;100.00;101827.28;4936892;29;20055;-68
2021/11/14 03:37:30;;;;;;;66.15;24.45;;;;;;;8.29;100.00;101825.78;4936307;29;20027;-69
2021/11/14 03:40:17;;;;;;;92.40;27.95;;;;;;;8.32;100.00;101822.31;4936833;29;20031;-68
2021/11/14 03:43:03;;;;;;;77.63;28.80;;;;;;;8.30;100.00;101817.09;4922974;29;20427;-69
2021/11/14 03:45:49;;;;;;;79.63;27.48;;;;;;;8.10;100.00;101835.97;4937175;29;20043;-69
2021/11/14 03:48:39;;;;;;;79.75;28.88;;;;;;;8.51;100.00;101822.50;4940060;29;20067;-70
2021/11/14 03:51:25;;;;;;;113.22;31.73;;;;;;;8.79;100.00;101831.41;4939684;29;20036;-70
2021/11/14 03:54:11;;;;;;;75.82;27.80;;;;;;;8.94;100.00;101826.31;4940108;29;20474;-69
2021/11/14 03:56:57;;;;;;;89.40;27.55;;;;;;;8.92;100.00;101828.91;4939137;29;20451;-69
2021/11/14 03:59:43;;;;;;;78.63;28.25;;;;;;;8.56;100.00;101827.75;4941262;29;20135;-69
2021/11/14 04:02:30;;;;;;;103.15;25.30;;;;;;;7.95;100.00;101846.25;4927375;29;20043;-69
2021/11/14 04:05:16;;;;;;;90.20;27.73;;;;;;;8.23;100.00;101838.78;4940221;29;20378;-69
2021/11/14 04:08:08;;;;;;;94.15;29.88;;;;;;;8.67;100.00;101839.16;4940796;29;20407;-69
2021/11/14 04:10:59;;;;;;;81.53;28.02;;;;;;;8.58;100.00;101826.03;4938627;29;20028;-69
2021/11/14 04:13:45;;;;;;;86.65;27.80;;;;;;;8.44;100.00;101830.28;4939301;29;20362;-69
2021/11/14 04:16:31;;;;;;;75.00;28.50;;;;;;;9.02;100.00;101840.28;4938586;29;20469;-69
2021/11/14 04:19:17;;;;;;;75.55;28.38;;;;;;;8.86;100.00;101828.88;4925794;29;20115;-69
2021/11/14 04:22:03;;;;;;;73.00;25.70;;;;;;;8.22;100.00;101831.81;4940063;29;20462;-70
2021/11/14 04:24:48;;;;;;;98.20;28.85;;;;;;;8.34;100.00;101831.03;4939405;29;20466;-69
2021/11/14 04:27:34;;;;;;;78.70;26.88;;;;;;;8.13;100.00;101836.91;4938709;29;20027;-70
2021/11/14 04:30:20;;;;;;;83.20;28.33;;;;;;;8.59;100.00;101833.00;4939233;29;20038;-69
2021/11/14 04:33:07;;;;;;;68.93;25.95;;;;;;;9.04;100.00;101833.31;4926121;29;20039;-69
2021/11/14 04:35:53;;;;;;;83.15;28.80;;;;;;;9.11;100.00;101830.78;4939196;29;20027;-70
2021/11/14 04:38:39;;;;;;;78.00;26.55;;;;;;;8.61;100.00;101839.13;4925043;29;20035;-68
2021/11/14 04:41:24;;;;;;;77.88;26.45;;;;;;;9.00;100.00;101832.44;4913294;29;20110;-69
2021/11/14 04:44:10;;;;;;;96.57;29.20;;;;;;;9.02;100.00;101835.06;4939741;29;20038;-69
2021/11/14 04:46:56;;;;;;;92.80;28.45;;;;;;;8.89;100.00;101828.88;4937933;29;20028;-69
2021/11/14 04:49:42;;;;;;;78.85;27.48;;;;;;;9.19;100.00;101842.16;4940156;29;20398;-69
2021/11/14 04:52:28;;;;;;;83.95;27.90;;;;;;;8.74;100.00;101838.34;4938339;29;20031;-69
2021/11/14 04:55:14;;;;;;;89.82;27.60;;;;;;;9.24;100.00;101844.78;4938817;29;20456;-69
2021/11/14 04:57:59;;;;;;;73.35;25.60;;;;;;;8.98;100.00;101836.81;4937453;29;20047;-69
2021/11/14 05:00:50;;;;;;;68.93;25.52;;;;;;;9.31;100.00;101838.72;4939874;29;20438;-69
2021/11/14 05:03:36;;;;;;;61.25;23.23;;;;;;;8.96;100.00;101843.75;4926152;29;20422;-69
2021/11/14 05:06:22;;;;;;;70.95;24.80;;;;;;;8.79;100.00;101842.75;4924172;29;20527;-69
2021/11/14 05:09:08;;;;;;;71.65;24.63;;;;;;;8.87;100.00;101843.69;4939386;29;20043;-69
2021/11/14 05:11:54;;;;;;;72.93;24.70;;;;;;;8.64;100.00;101849.59;4925506;29;20024;-69
2021/11/14 05:14:40;;;;;;;62.30;23.02;;;;;;;8.69;100.00;101855.72;4937738;29;20024;-69
2021/11/14 05:17:25;;;;;;;64.90;24.23;;;;;;;8.69;100.00;101850.50;4925125;29;20027;-69
2021/11/14 05:20:12;;;;;;;65.32;25.13;;;;;;;9.22;100.00;101870.06;4938037;29;20114;-69
2021/11/14 05:22:57;;;;;;;67.15;25.80;;;;;;;9.16;100.00;101865.66;4925534;29;20104;-69
2021/11/14 05:25:44;;;;;;;60.25;24.70;;;;;;;9.14;100.00;101861.28;4939148;29;20024;-69
2021/11/14 05:28:30;;;;;;;63.38;23.23;;;;;;;8.99;100.00;101872.53;4938202;29;20312;-69
2021/11/14 05:31:16;;;;;;;58.45;23.35;;;;;;;8.81;100.00;101872.38;4939363;29;20045;-69
2021/11/14 05:34:02;;;;;;;60.38;23.70;;;;;;;9.08;100.00;101871.69;4938765;29;20028;-68
2021/11/14 05:36:47;;;;;;;71.45;25.25;;;;;;;8.88;100.00;101868.94;4937626;29;20185;-69
2021/11/14 05:39:34;;;;;;;65.80;25.10;;;;;;;9.30;100.00;101876.22;4937977;29;20032;-68
2021/11/14 08:43:36;;;;;;;38.95;24.08;;;;;;;9.85;100.00;101939.31;2593224;29;22017;-71
2021/11/14 08:46:22;;;;;;;34.13;18.33;;;;;;;9.81;100.00;101934.91;4905975;29;20047;-69
2021/11/14 08:49:08;;;;;;;35.42;18.30;;;;;;;9.43;100.00;101943.41;4920694;29;20530;-69
2021/11/14 08:51:54;;;;;;;31.27;16.88;;;;;;;9.43;100.00;101941.69;4920220;29;20028;-69
2021/11/14 08:54:40;;;;;;;37.13;18.27;;;;;;;9.53;100.00;101951.34;4920166;29;20358;-68
2021/11/14 08:57:26;;;;;;;33.63;16.95;;;;;;;8.88;100.00;101952.56;4919783;29;20040;-68
2021/11/14 09:00:15;;;;;;;40.40;18.73;;;;;;;9.06;100.00;101950.13;4920683;29;20035;-69
2021/11/14 09:03:02;;;;;;;28.92;15.95;;;;;;;8.90;100.00;101945.63;4920566;29;20087;-69
2021/11/14 09:05:48;;;;;;;30.92;16.08;;;;;;;8.91;100.00;101941.25;4920181;29;20044;-68
2021/11/14 09:08:34;;;;;;;31.02;16.30;;;;;;;9.04;100.00;101946.63;4919961;29;20106;-69
2021/11/14 09:11:20;;;;;;;31.05;17.27;;;;;;;9.19;100.00;101946.75;4919681;29;20024;-69
2021/11/14 09:14:07;;;;;;;33.75;17.77;;;;;;;9.18;100.00;101949.34;4919866;29;20035;-68
2021/11/14 09:16:54;;;;;;;29.73;15.55;;;;;;;9.37;100.00;101946.00;4918835;29;20474;-69
2021/11/14 09:19:40;;;;;;;27.98;15.40;;;;;;;9.40;100.00;101935.53;4920053;29;20039;-68
2021/11/14 09:22:26;;;;;;;28.23;14.55;;;;;;;8.95;100.00;101935.19;4905821;29;20028;-68
2021/11/14 09:25:12;;;;;;;25.48;14.18;;;;;;;9.72;100.00;101934.88;4918896;29;20497;-69
2021/11/14 09:27:57;;;;;;;26.08;14.23;;;;;;;9.65;100.00;101932.22;4918925;29;20115;-69
2021/11/14 09:30:49;;;;;;;27.70;14.20;;;;;;;9.64;100.00;101928.72;4919702;29;20340;-69
2021/11/14 09:33:34;;;;;;;26.33;13.85;;;;;;;9.64;100.00;101933.97;4919305;29;20023;-68
2021/11/14 09:36:21;;;;;;;25.42;12.98;;;;;;;9.70;100.00;101922.66;4919989;29;20099;-69
2021/11/14 09:39:12;;;;;;;23.52;13.05;;;;;;;9.61;100.00;101925.25;4919896;29;20486;-69
2021/11/14 09:41:58;;;;;;;25.48;13.77;;;;;;;9.59;100.00;101919.09;4918469;29;20438;-69
2021/11/14 09:44:44;;;;;;;24.17;13.25;;;;;;;9.64;100.00;101914.75;4930305;29;20058;-69
2021/11/14 09:47:30;;;;;;;21.00;12.93;;;;;;;9.69;100.00;101913.91;4936889;29;20035;-69
2021/11/14 09:50:16;;;;;;;24.20;13.77;;;;;;;9.84;100.00;101911.38;4925123;29;20031;-68
2021/11/14 09:53:02;;;;;;;23.90;13.00;;;;;;;9.61;100.00;101905.16;4936544;29;20050;-70
2021/11/14 09:55:48;;;;;;;23.60;13.02;;;;;;;9.38;100.00;101901.56;4938158;29;20406;-68
2021/11/14 09:58:35;;;;;;;22.25;12.90;;;;;;;9.64;100.00;101901.69;4938304;29;20096;-69
2021/11/14 10:01:21;;;;;;;20.80;12.73;;;;;;;9.19;100.00;101909.25;4937184;29;20039;-69
2021/11/14 10:04:08;;;;;;;22.10;12.95;;;;;;;9.72;100.00;101910.44;4938419;29;20032;-69
2021/11/14 10:07:05;;;;;;;20.83;12.43;;;;;;;9.92;100.00;101903.56;4938816;29;20032;-71
2021/11/14 10:09:53;;;;;;;20.13;12.70;;;;;;;9.84;100.00;101892.19;4938239;29;20038;-69
2021/11/14 10:12:39;;;;;;;21.35;11.82;;;;;;;10.11;100.00;101892.31;4924141;29;20031;-70
2021/11/14 10:15:25;;;;;;;22.10;12.77;;;;;;;10.09;100.00;101886.22;4938152;29;20035;-69
2021/11/14 10:18:12;;;;;;;21.13;12.45;;;;;;;9.40;100.00;101891.97;4936673;29;20028;-70
2021/11/14 10:21:01;;;;;;;21.23;12.30;;;;;;;10.13;100.00;101892.31;4936465;29;20039;-69
2021/11/14 10:23:48;;;;;;;20.60;12.48;;;;;;;9.86;100.00;101886.06;4923558;29;20454;-69
2021/11/14 10:26:35;;;;;;;20.63;12.63;;;;;;;9.41;100.00;101890.25;4936988;29;20131;-69
2021/11/14 10:29:21;;;;;;;22.90;12.77;;;;;;;9.54;100.00;101882.47;4923774;29;20114;-68
2021/11/14 10:32:09;;;;;;;21.45;12.20;;;;;;;9.54;100.00;101876.34;4938165;29;20036;-68
2021/11/14 10:35:02;;;;;;;25.17;13.20;;;;;;;9.53;100.00;101874.59;4936300;29;20028;-69
2021/11/14 10:37:49;;;;;;;18.23;11.07;;;;;;;9.41;100.00;101870.16;4937520;29;20043;-69
2021/11/14 10:40:39;;;;;;;19.08;11.40;;;;;;;10.08;100.00;101881.84;4935941;29;20032;-70
2021/11/14 10:43:25;;;;;;;19.00;11.82;;;;;;;9.59;100.00;101875.50;4936968;29;20031;-69
2021/11/14 10:46:21;;;;;;;18.75;11.15;;;;;;;9.63;100.00;101869.44;4936033;29;20386;-70
2021/11/14 10:49:08;;;;;;;17.42;10.88;;;;;;;9.96;100.00;101869.56;4936135;29;20165;-70
2021/11/14 10:51:57;;;;;;;19.50;11.82;;;;;;;10.32;100.00;101863.56;4936042;29;20038;-69
2021/11/14 10:54:44;;;;;;;20.00;12.10;;;;;;;10.49;100.00;101859.22;4935915;29;20027;-69
2021/11/14 10:57:31;;;;;;;21.90;12.30;;;;;;;10.74;100.00;101855.75;4937274;29;20442;-68
2021/11/14 11:00:19;;;;;;;18.33;11.82;;;;;;;9.90;100.00;101863.41;4936378;29;20036;-69
2021/11/14 11:03:07;;;;;;;17.40;11.35;;;;;;;10.26;100.00;101858.31;4923317;29;20031;-69
2021/11/14 11:05:55;;;;;;;18.27;11.55;;;;;;;10.50;100.00;101849.63;4935849;29;20031;-70
2021/11/14 11:08:44;;;;;;;21.00;13.20;;;;;;;10.25;100.00;101851.34;4936082;29;20450;-70
2021/11/14 11:11:42;;;;;;;20.65;12.63;;;;;;;10.29;100.00;101850.44;4935682;29;20370;-68
2021/11/14 11:14:28;;;;;;;19.40;12.13;;;;;;;10.56;100.00;101863.59;4935327;29;20043;-68
2021/11/14 11:17:14;;;;;;;20.63;12.75;;;;;;;10.61;100.00;101851.34;4936879;29;20035;-70
2021/11/14 11:20:10;;;;;;;19.38;12.25;;;;;;;10.27;100.00;101857.44;4924232;29;20024;-70
2021/11/14 11:22:58;;;;;;;20.27;12.60;;;;;;;10.46;100.00;101856.59;4935422;29;20119;-70
2021/11/14 11:25:48;;;;;;;18.75;11.50;;;;;;;10.06;100.00;101853.03;4935807;29;20046;-70
2021/11/14 11:28:38;;;;;;;20.98;12.20;;;;;;;10.55;100.00;101842.63;4935884;29;20032;-69
2021/11/14 11:31:23;;;;;;;17.02;11.50;;;;;;;10.77;100.00;101842.63;4924215;29;20035;-70
2021/11/14 11:34:09;;;;;;;20.77;12.88;;;;;;;10.78;100.00;101840.88;4937080;29;20404;-69
2021/11/14 11:36:56;;;;;;;19.77;12.30;;;;;;;10.75;100.00;101846.13;4935725;29;20046;-68
2021/11/14 11:39:43;;;;;;;22.08;12.57;;;;;;;10.97;100.00;101846.09;4922886;29;20027;-70
2021/11/14 11:42:28;;;;;;;20.48;12.30;;;;;;;10.82;100.00;101837.38;4936636;29;20040;-69
2021/11/14 11:45:24;;;;;;;19.42;12.70;;;;;;;10.53;100.00;101842.63;4935024;29;20047;-69
2021/11/14 11:48:26;;;;;;;18.35;12.63;;;;;;;10.68;100.00;101834.75;4937018;29;20051;-69
2021/11/14 11:51:13;;;;;;;21.10;13.38;;;;;;;10.58;100.00;101842.63;4923211;29;20127;-71
2021/11/14 11:54:20;;;;;;;20.00;12.85;;;;;;;10.84;100.00;101833.03;4936905;29;20020;-69
2021/11/14 11:57:13;;;;;;;18.77;13.60;;;;;;;10.11;100.00;101842.56;4935496;29;20451;-70
2021/11/14 12:00:04;;;;;;;20.27;12.63;;;;;;;10.25;100.00;101843.50;4936100;29;20024;-69
2021/11/14 12:02:50;;;;;;;18.20;12.48;;;;;;;9.94;100.00;101852.94;4935671;29;20055;-69
2021/11/14 12:05:46;;;;;;;21.63;13.60;;;;;;;10.16;100.00;101847.84;4936605;29;20024;-69
2021/11/14 12:08:35;;;;;;;19.73;12.95;;;;;;;10.00;100.00;101855.59;4940054;29;20435;-69
2021/11/14 12:11:24;;;;;;;24.48;16.10;;;;;;;9.70;100.00;101849.38;4926851;29;20031;-70
2021/11/14 12:14:31;;;;;;;25.30;16.40;;;;;;;9.86;100.00;101856.44;4940784;29;20060;-70
2021/11/14 12:17:25;;;;;;;22.10;14.10;;;;;;;9.55;100.00;101844.97;4938446;29;20035;-69
2021/11/14 12:20:13;;;;;;;23.33;13.98;;;;;;;10.20;100.00;101852.19;4939116;29;20377;-69
2021/11/14 12:23:02;;;;;;;19.13;13.27;;;;;;;9.86;100.00;101844.19;4938901;29;20020;-69
2021/11/14 12:25:51;;;;;;;19.05;13.57;;;;;;;9.93;100.00;101848.59;4938510;29;20118;-70
2021/11/14 12:28:43;;;;;;;24.27;15.10;;;;;;;9.90;100.00;101847.72;4938737;29;20028;-69
2021/11/14 12:31:31;;;;;;;26.38;16.33;;;;;;;9.62;100.00;101851.09;4938780;29;20103;-70
2021/11/14 12:34:23;;;;;;;22.90;16.05;;;;;;;9.78;100.00;101847.69;4938672;29;20063;-70
2021/11/14 12:37:12;;;;;;;23.83;15.20;;;;;;;9.47;100.00;101848.41;4938860;29;20245;-69
2021/11/14 12:40:15;;;;;;;23.27;15.35;;;;;;;10.11;100.00;101839.94;4939264;29;20050;-69
2021/11/14 12:43:17;;;;;;;23.25;16.33;;;;;;;10.24;100.00;101840.84;4926430;29;20033;-69
2021/11/14 12:46:13;;;;;;;24.50;16.90;;;;;;;10.45;100.00;101840.88;4938983;29;20043;-71
2021/11/14 12:49:11;;;;;;;25.75;16.92;;;;;;;10.11;100.00;101842.56;4940086;29;20047;-69
2021/11/14 12:51:57;;;;;;;20.55;14.57;;;;;;;10.43;100.00;101835.63;4938399;29;20036;-69
2021/11/14 12:54:55;;;;;;;21.95;14.65;;;;;;;9.90;100.00;101845.09;4940582;29;20318;-70
2021/11/14 12:57:47;;;;;;;20.45;13.80;;;;;;;10.18;100.00;101836.47;4939353;29;20035;-69
2021/11/14 13:00:45;;;;;;;18.77;13.52;;;;;;;10.22;100.00;101835.63;4938174;29;20031;-71
2021/11/14 13:03:35;;;;;;;23.70;15.52;;;;;;;10.13;100.00;101846.09;4938323;29;20103;-69
2021/11/14 13:06:29;;;;;;;23.27;15.80;;;;;;;10.29;100.00;101844.34;4938427;29;20118;-70
2021/11/14 13:09:19;;;;;;;23.10;14.75;;;;;;;10.01;100.00;101841.63;4937912;29;20042;-70
2021/11/14 13:12:08;;;;;;;18.98;13.50;;;;;;;10.48;100.00;101838.28;4938748;29;20090;-70
2021/11/14 13:15:01;;;;;;;21.95;14.55;;;;;;;10.63;100.00;101840.88;4938157;29;20414;-69
2021/11/14 13:17:49;;;;;;;22.83;13.85;;;;;;;10.18;100.00;101845.19;4938342;29;20055;-69
2021/11/14 13:20:38;;;;;;;23.50;14.63;;;;;;;10.16;100.00;101847.84;4938231;29;20061;-69
2021/11/14 13:23:26;;;;;;;21.90;14.50;;;;;;;10.10;100.00;101844.31;4937533;29;20020;-68
2021/11/14 13:26:13;;;;;;;21.20;14.18;;;;;;;9.92;100.00;101846.84;4937464;29;20083;-69
2021/11/14 13:29:02;;;;;;;23.15;14.20;;;;;;;9.95;100.00;101840.75;4937834;29;20028;-69
2021/11/14 13:31:52;;;;;;;22.65;15.38;;;;;;;9.90;100.00;101847.72;4938353;29;20419;-69
2021/11/14 13:34:40;;;;;;;24.60;17.10;;;;;;;9.68;100.00;101843.25;4937581;29;20024;-69
2021/11/14 13:37:30;;;;;;;27.77;18.00;;;;;;;9.91;100.00;101857.31;4937428;29;20051;-68
2021/11/14 13:40:19;;;;;;;26.25;17.20;;;;;;;10.00;100.00;101858.22;4937618;29;20477;-69
2021/11/14 13:43:07;;;;;;;25.02;16.33;;;;;;;9.43;100.00;101857.09;4938065;29;20099;-68
2021/11/14 13:45:54;;;;;;;27.13;16.23;;;;;;;9.72;100.00;101851.13;4937504;29;20481;-70
2021/11/14 13:48:40;;;;;;;28.23;16.67;;;;;;;10.09;100.00;101857.41;4925251;29;20059;-69
2021/11/14 13:51:29;;;;;;;25.95;16.95;;;;;;;9.77;100.00;101856.41;4938552;29;20039;-69
2021/11/14 13:54:14;;;;;;;26.60;15.90;;;;;;;9.66;100.00;101863.31;4937580;29;20399;-69
2021/11/14 13:57:02;;;;;;;25.52;16.45;;;;;;;9.94;100.00;101873.03;4938732;29;20042;-69
2021/11/14 13:59:49;;;;;;;28.27;16.95;;;;;;;9.82;100.00;101866.00;4937463;29;20038;-69
2021/11/14 14:02:35;;;;;;;29.85;16.65;;;;;;;9.92;100.00;101861.66;4937660;29;20089;-69
2021/11/14 14:05:23;;;;;;;24.13;15.55;;;;;;;9.88;100.00;101858.19;4924207;29;20039;-70
2021/11/14 14:08:09;;;;;;;25.55;16.85;;;;;;;9.50;100.00;101859.78;4937290;29;20081;-71
2021/11/14 14:10:56;;;;;;;27.02;16.65;;;;;;;9.47;100.00;101864.09;4936876;29;20028;-70
2021/11/14 14:13:57;;;;;;;30.83;18.88;;;;;;;9.55;100.00;101863.28;4937759;29;20031;-70
2021/11/14 14:16:43;;;;;;;26.67;16.17;;;;;;;9.89;100.00;101864.31;4937077;29;20119;-70
2021/11/14 14:19:29;;;;;;;26.15;17.60;;;;;;;10.06;100.00;101865.25;4923850;29;20042;-70
2021/11/14 14:22:15;;;;;;;26.13;16.55;;;;;;;10.08;100.00;101859.16;4923229;29;20102;-69
2021/11/14 14:25:01;;;;;;;25.65;16.38;;;;;;;9.99;100.00;101874.81;4924461;29;20031;-69
2021/11/14 14:27:55;;;;;;;26.15;17.55;;;;;;;10.11;100.00;101876.59;4936769;29;20027;-70
2021/11/14 14:30:41;;;;;;;26.60;17.45;;;;;;;9.86;100.00;101869.53;4936296;29;20023;-71
2021/11/14 14:33:30;;;;;;;28.40;17.15;;;;;;;9.32;100.00;101872.72;4936671;29;20031;-70
2021/11/14 14:36:16;;;;;;;24.67;16.73;;;;;;;9.59;100.00;101878.13;4937688;29;20442;-69
2021/11/14 14:39:07;;;;;;;27.02;16.85;;;;;;;9.48;100.00;101879.81;4938315;29;20418;-70
2021/11/14 14:41:53;;;;;;;24.13;16.35;;;;;;;9.88;100.00;101875.63;4936752;29;20429;-71
2021/11/14 14:44:38;;;;;;;27.80;18.20;;;;;;;9.69;100.00;101871.19;4923662;29;20050;-69
2021/11/14 14:47:24;;;;;;;25.85;17.95;;;;;;;9.53;100.00;101877.22;4937534;29;20043;-70
2021/11/14 14:50:14;;;;;;;29.08;18.45;;;;;;;9.52;100.00;101873.72;4937743;29;20031;-70
2021/11/14 14:53:00;;;;;;;28.38;18.42;;;;;;;9.56;100.00;101875.47;4923704;29;20019;-69
2021/11/14 14:55:46;;;;;;;28.88;18.75;;;;;;;9.42;100.00;101877.16;4936634;29;20094;-71
2021/11/14 14:58:32;;;;;;;31.50;19.35;;;;;;;9.15;100.00;101879.59;4923284;29;20023;-72
2021/11/14 15:01:37;;;;;;;29.92;20.13;;;;;;;9.42;100.00;101879.78;4936324;29;20091;-70
2021/11/14 15:04:26;;;;;;;30.10;18.92;;;;;;;9.39;100.00;101882.38;4937307;29;20024;-70
2021/11/14 15:07:15;;;;;;;27.95;18.50;;;;;;;9.44;100.00;101882.38;4936220;29;20094;-70
2021/11/14 15:10:08;;;;;;;29.45;18.65;;;;;;;9.12;100.00;101882.19;4935635;29;20043;-71
2021/11/14 15:12:57;;;;;;;27.25;18.67;;;;;;;9.38;100.00;101885.88;4917525;29;20024;-70
2021/11/14 15:15:43;;;;;;;31.75;19.55;;;;;;;9.69;100.00;101890.38;4936068;29;20131;-70
2021/11/14 15:18:39;;;;;;;28.73;17.90;;;;;;;9.38;100.00;101898.06;4937276;29;20106;-71
2021/11/14 15:21:25;;;;;;;27.90;18.17;;;;;;;9.46;100.00;101897.25;4936918;29;20028;-70
2021/11/14 15:24:11;;;;;;;31.17;19.05;;;;;;;9.39;100.00;101900.69;4935829;29;20098;-70
2021/11/14 15:26:57;;;;;;;29.20;18.23;;;;;;;9.17;100.00;101898.78;4935746;29;20039;-70
2021/11/14 15:29:43;;;;;;;27.98;17.85;;;;;;;9.16;100.00;101901.38;4936976;29;20111;-70
2021/11/14 15:32:28;;;;;;;27.00;17.75;;;;;;;9.15;100.00;101902.25;4936577;29;20031;-68
2021/11/14 15:35:15;;;;;;;27.10;17.35;;;;;;;9.32;100.00;101898.00;4937570;29;20058;-71
2021/11/14 15:38:01;;;;;;;27.77;17.63;;;;;;;9.42;100.00;101903.31;4936052;29;20481;-70
2021/11/14 15:40:49;;;;;;;25.73;17.20;;;;;;;9.51;100.00;101899.88;4923258;29;20386;-69